createdAt,value
2022-09-27T00:02:18.609Z,14.63
2022-09-27T00:04:45.551Z,14.56
2022-09-27T00:07:12.456Z,14.56
2022-09-27T00:09:39.363Z,14.56
2022-09-27T00:12:06.297Z,14.56
2022-09-27T00:14:33.237Z,14.63
2022-09-27T00:17:00.157Z,14.63
2022-09-27T00:19:27.069Z,14.56
2022-09-27T00:21:54.060Z,14.56
2022-09-27T00:24:20.979Z,14.56
2022-09-27T00:26:47.890Z,14.56
2022-09-27T00:29:14.883Z,14.56
2022-09-27T00:31:41.952Z,14.50
2022-09-27T00:34:08.860Z,14.50
2022-09-27T00:36:35.768Z,14.50
2022-09-27T00:39:02.700Z,14.50
2022-09-27T00:41:29.607Z,14.50
2022-09-27T00:43:56.525Z,14.50
2022-09-27T00:46:23.540Z,14.50
2022-09-27T00:48:50.568Z,14.56
2022-09-27T00:51:17.500Z,14.50
2022-09-27T00:53:44.436Z,14.50
2022-09-27T00:56:11.346Z,14.50
2022-09-27T00:58:38.277Z,14.50
2022-09-27T01:01:05.287Z,14.50
2022-09-27T01:03:32.255Z,14.44
2022-09-27T01:05:59.164Z,14.44
2022-09-27T01:08:26.094Z,14.44
2022-09-27T01:10:53.056Z,14.44
2022-09-27T01:13:19.984Z,14.44
2022-09-27T01:15:47.059Z,14.44
2022-09-27T01:18:13.971Z,14.38
2022-09-27T01:20:40.906Z,14.38
2022-09-27T01:23:07.801Z,14.38
2022-09-27T01:25:34.723Z,14.38
2022-09-27T01:28:01.623Z,14.38
2022-09-27T01:30:28.565Z,14.38
2022-09-27T01:32:55.523Z,14.38
2022-09-27T01:35:22.483Z,14.38
2022-09-27T01:37:49.400Z,14.38
2022-09-27T01:40:16.362Z,14.38
2022-09-27T01:42:43.557Z,14.38
2022-09-27T01:45:10.469Z,14.38
2022-09-27T01:47:37.397Z,14.31
2022-09-27T01:50:04.311Z,14.31
2022-09-27T01:52:31.231Z,14.31
2022-09-27T01:54:58.139Z,14.31
2022-09-27T01:57:25.072Z,14.31
2022-09-27T01:59:51.991Z,14.31
2022-09-27T02:02:18.935Z,14.31
2022-09-27T02:04:45.901Z,14.31
2022-09-27T02:07:12.855Z,14.31
2022-09-27T02:09:39.775Z,14.31
2022-09-27T02:12:06.682Z,14.31
2022-09-27T02:14:33.611Z,14.31
2022-09-27T02:17:00.538Z,14.31
2022-09-27T02:19:27.462Z,14.31
2022-09-27T02:21:54.382Z,14.31
2022-09-27T02:24:21.282Z,14.31
2022-09-27T02:26:48.206Z,14.31
2022-09-27T02:29:15.297Z,14.31
2022-09-27T02:31:42.327Z,14.31
2022-09-27T02:34:09.294Z,14.25
2022-09-27T02:36:36.206Z,14.31
2022-09-27T02:39:03.136Z,14.31
2022-09-27T02:41:30.077Z,14.25
2022-09-27T02:43:56.971Z,14.25
2022-09-27T02:46:24.043Z,14.25
2022-09-27T02:48:51.011Z,14.25
2022-09-27T02:51:17.973Z,14.25
2022-09-27T02:53:44.902Z,14.31
2022-09-27T02:56:11.820Z,14.25
2022-09-27T02:58:38.764Z,14.31
2022-09-27T03:01:05.712Z,14.31
2022-09-27T03:03:32.641Z,14.31
2022-09-27T03:05:59.568Z,14.31
2022-09-27T03:08:26.492Z,14.31
2022-09-27T03:10:53.424Z,14.31
2022-09-27T03:13:20.341Z,14.31
2022-09-27T03:15:47.296Z,14.31
2022-09-27T03:18:14.212Z,14.31
2022-09-27T03:20:41.123Z,14.31
2022-09-27T03:23:08.044Z,14.31
2022-09-27T03:25:34.975Z,14.25
2022-09-27T03:28:01.897Z,14.25
2022-09-27T03:30:28.829Z,14.31
2022-09-27T03:32:55.743Z,14.25
2022-09-27T03:35:22.667Z,14.25
2022-09-27T03:37:49.637Z,14.25
2022-09-27T03:40:16.639Z,14.31
2022-09-27T03:42:48.871Z,14.25
2022-09-27T03:45:16.620Z,14.25
2022-09-27T03:47:43.550Z,14.25
2022-09-27T03:50:10.506Z,14.25
2022-09-27T03:52:37.415Z,14.25
2022-09-27T03:55:04.332Z,14.25
2022-09-27T03:57:31.248Z,14.19
2022-09-27T03:59:58.155Z,14.13
2022-09-27T04:02:25.165Z,14.13
2022-09-27T04:04:52.148Z,14.19
2022-09-27T04:07:19.065Z,14.19
2022-09-27T04:09:45.984Z,14.25
2022-09-27T04:12:12.885Z,14.25
2022-09-27T04:14:39.825Z,14.25
2022-09-27T04:17:13.530Z,14.25
2022-09-27T04:19:40.460Z,14.25
2022-09-27T04:22:07.396Z,14.25
2022-09-27T04:24:34.310Z,14.25
2022-09-27T04:27:01.241Z,14.25
2022-09-27T04:29:28.155Z,14.25
2022-09-27T04:31:55.123Z,14.25
2022-09-27T04:34:22.068Z,14.25
2022-09-27T04:36:49.010Z,14.19
2022-09-27T04:39:15.993Z,14.19
2022-09-27T04:41:43.025Z,14.19
2022-09-27T04:44:09.968Z,14.19
2022-09-27T04:46:36.950Z,14.19
2022-09-27T04:49:03.915Z,14.19
2022-09-27T04:51:30.855Z,14.13
2022-09-27T04:53:57.778Z,14.13
2022-09-27T04:56:24.817Z,14.19
2022-09-27T04:58:51.756Z,14.19
2022-09-27T05:01:18.720Z,14.19
2022-09-27T05:03:45.659Z,14.19
2022-09-27T05:06:12.620Z,14.19
2022-09-27T05:08:39.543Z,14.19
2022-09-27T05:11:06.778Z,14.19
2022-09-27T05:13:33.683Z,14.19
2022-09-27T05:16:00.606Z,14.25
2022-09-27T05:18:27.508Z,14.25
2022-09-27T05:20:54.483Z,14.19
2022-09-27T05:23:21.420Z,14.19
2022-09-27T05:25:48.360Z,14.19
2022-09-27T05:28:15.558Z,14.19
2022-09-27T05:30:42.687Z,14.19
2022-09-27T05:33:09.703Z,14.13
2022-09-27T05:35:37.007Z,14.13
2022-09-27T05:38:03.934Z,14.19
2022-09-27T05:40:46.249Z,14.25
2022-09-27T05:43:13.757Z,14.25
2022-09-27T05:45:40.847Z,14.31
2022-09-27T05:48:07.821Z,14.31
2022-09-27T05:50:34.783Z,14.31
2022-09-27T05:53:01.924Z,14.31
2022-09-27T05:55:29.106Z,14.31
2022-09-27T05:57:57.400Z,14.38
2022-09-27T06:00:24.449Z,14.31
2022-09-27T06:02:52.009Z,14.31
2022-09-27T06:05:18.975Z,14.56
2022-09-27T06:07:46.107Z,14.69
2022-09-27T06:10:14.324Z,14.69
2022-09-27T06:12:41.241Z,14.81
2022-09-27T06:15:08.167Z,14.81
2022-09-27T06:17:35.085Z,14.88
2022-09-27T06:20:02.018Z,14.94
2022-09-27T06:22:28.911Z,14.88
2022-09-27T06:25:02.343Z,14.94
2022-09-27T06:27:29.277Z,14.94
2022-09-27T06:29:56.190Z,15.00
2022-09-27T06:32:23.619Z,14.94
2022-09-27T06:34:50.527Z,14.94
2022-09-27T06:37:17.448Z,14.94
2022-09-27T06:39:44.357Z,14.81
2022-09-27T06:42:11.307Z,14.81
2022-09-27T06:44:38.345Z,14.81
2022-09-27T06:47:05.272Z,14.88
2022-09-27T06:49:32.219Z,14.94
2022-09-27T06:51:59.126Z,14.88
2022-09-27T06:54:26.054Z,14.88
2022-09-27T06:56:52.981Z,14.88
2022-09-27T06:59:19.918Z,14.88
2022-09-27T07:01:47.013Z,14.94
2022-09-27T07:04:13.955Z,15.00
2022-09-27T07:06:40.865Z,15.00
2022-09-27T07:09:07.765Z,14.88
2022-09-27T07:11:34.687Z,14.88
2022-09-27T07:14:01.587Z,14.88
2022-09-27T07:16:28.562Z,14.88
2022-09-27T07:18:55.491Z,14.88
2022-09-27T07:21:22.412Z,14.81
2022-09-27T07:23:49.331Z,14.81
2022-09-27T07:26:16.301Z,14.94
2022-09-27T07:28:43.245Z,15.00
2022-09-27T07:31:10.251Z,15.00
2022-09-27T07:33:38.903Z,15.06
2022-09-27T07:36:09.445Z,15.06
2022-09-27T07:38:36.407Z,15.00
2022-09-27T07:41:03.398Z,15.06
2022-09-27T07:43:31.110Z,15.13
2022-09-27T07:45:58.118Z,15.13
2022-09-27T07:48:25.064Z,15.13
2022-09-27T07:50:51.991Z,15.13
2022-09-27T07:53:19.043Z,15.19
2022-09-27T07:55:46.014Z,15.25
2022-09-27T07:58:12.945Z,15.25
2022-09-27T08:00:39.923Z,15.25
2022-09-27T08:03:06.831Z,15.31
2022-09-27T08:05:33.791Z,15.31
2022-09-27T08:08:00.733Z,15.31
2022-09-27T08:10:27.635Z,15.38
2022-09-27T08:12:54.589Z,15.44
2022-09-27T08:15:21.512Z,15.44
2022-09-27T08:17:48.428Z,15.50
2022-09-27T08:20:15.393Z,15.50
2022-09-27T08:22:42.347Z,15.56
2022-09-27T08:25:09.332Z,15.56
2022-09-27T08:27:36.238Z,15.50
2022-09-27T08:30:03.179Z,15.50
2022-09-27T08:32:30.117Z,15.56
2022-09-27T08:34:57.039Z,15.50
2022-09-27T08:37:23.980Z,15.50
2022-09-27T08:39:50.905Z,15.56
2022-09-27T08:42:17.827Z,15.63
2022-09-27T08:44:44.764Z,15.81
2022-09-27T08:47:11.663Z,15.81
2022-09-27T08:49:38.649Z,15.81
2022-09-27T08:52:05.608Z,15.69
2022-09-27T08:54:32.525Z,15.63
2022-09-27T08:56:59.434Z,15.63
2022-09-27T08:59:26.344Z,15.56
2022-09-27T09:01:53.286Z,15.50
2022-09-27T09:04:20.245Z,15.50
2022-09-27T09:06:47.180Z,15.56
2022-09-27T09:09:14.076Z,15.56
2022-09-27T09:11:41.036Z,15.63
2022-09-27T09:14:12.770Z,15.63
2022-09-27T09:16:40.518Z,15.69
2022-09-27T09:19:07.500Z,15.81
2022-09-27T09:21:34.427Z,15.75
2022-09-27T09:24:01.354Z,15.75
2022-09-27T09:26:28.264Z,15.75
2022-09-27T09:28:55.172Z,15.75
2022-09-27T09:31:22.124Z,15.75
2022-09-27T09:33:49.067Z,15.63
2022-09-27T09:36:15.967Z,15.63
2022-09-27T09:38:42.910Z,15.63
2022-09-27T09:41:09.824Z,15.69
2022-09-27T09:43:36.745Z,15.69
2022-09-27T09:46:03.720Z,15.69
2022-09-27T09:48:30.692Z,15.69
2022-09-27T09:50:57.620Z,15.63
2022-09-27T09:53:24.520Z,15.63
2022-09-27T09:55:51.435Z,15.63
2022-09-27T09:58:20.035Z,15.63
2022-09-27T10:00:47.156Z,15.69
2022-09-27T10:03:14.095Z,15.69
2022-09-27T10:05:41.307Z,15.69
2022-09-27T10:08:08.214Z,15.63
2022-09-27T10:10:35.142Z,15.56
2022-09-27T10:13:02.073Z,15.50
2022-09-27T10:15:28.988Z,15.56
2022-09-27T10:17:55.931Z,15.44
2022-09-27T10:20:22.852Z,15.44
2022-09-27T10:22:49.775Z,15.44
2022-09-27T10:25:16.696Z,15.38
2022-09-27T10:27:43.595Z,15.31
2022-09-27T10:30:10.529Z,15.44
2022-09-27T10:32:37.489Z,15.44
2022-09-27T10:35:04.432Z,15.56
2022-09-27T10:37:31.380Z,15.56
2022-09-27T10:39:58.285Z,15.56
2022-09-27T10:42:25.309Z,15.50
2022-09-27T10:44:52.225Z,15.50
2022-09-27T10:47:19.153Z,15.56
2022-09-27T10:49:46.058Z,15.56
2022-09-27T10:52:12.979Z,15.56
2022-09-27T10:54:39.887Z,15.56
2022-09-27T10:57:06.832Z,15.56
2022-09-27T10:59:33.785Z,15.69
2022-09-27T11:02:00.877Z,15.69
2022-09-27T11:04:27.912Z,15.69
2022-09-27T11:06:54.840Z,15.69
